createdAt,value
2023-03-08T00:00:38.230Z,2.28
2023-03-08T00:03:16.397Z,2.40
2023-03-08T00:05:44.788Z,3.38
2023-03-08T00:08:12.181Z,3.38
2023-03-08T00:10:39.211Z,2.92
2023-03-08T00:13:06.471Z,3.55
2023-03-08T00:15:33.469Z,3.72
2023-03-08T00:18:01.156Z,3.42
2023-03-08T00:20:28.213Z,3.25
2023-03-08T00:22:55.710Z,3.10
2023-03-08T00:25:22.654Z,3.20
2023-03-08T00:27:49.999Z,3.10
2023-03-08T00:30:17.424Z,3.47
2023-03-08T00:32:44.745Z,2.60
2023-03-08T00:35:11.694Z,3.05
2023-03-08T00:37:38.944Z,3.00
2023-03-08T00:40:06.633Z,3.50
2023-03-08T00:42:34.136Z,2.65
2023-03-08T00:45:01.089Z,3.03
2023-03-08T00:47:28.399Z,2.80
2023-03-08T00:49:55.386Z,3.00
2023-03-08T00:52:22.650Z,3.03
2023-03-08T00:54:49.579Z,3.53
2023-03-08T00:57:17.099Z,3.20
2023-03-08T00:59:44.068Z,3.30
2023-03-08T01:02:11.668Z,2.72
2023-03-08T01:04:38.620Z,3.47
2023-03-08T01:07:06.094Z,2.78
2023-03-08T01:09:33.125Z,3.33
2023-03-08T01:12:00.331Z,3.85
2023-03-08T01:14:27.434Z,3.83
2023-03-08T01:16:55.048Z,3.53
2023-03-08T01:19:22.007Z,3.80
2023-03-08T01:21:49.456Z,3.97
2023-03-08T01:24:16.468Z,4.00
2023-03-08T01:26:43.742Z,3.95
2023-03-08T01:29:10.681Z,5.50
2023-03-08T01:31:37.920Z,4.68
2023-03-08T01:34:04.855Z,4.55
2023-03-08T01:36:32.248Z,3.90
2023-03-08T01:39:01.496Z,5.53
2023-03-08T01:41:31.197Z,5.07
2023-03-08T01:43:58.724Z,4.80
2023-03-08T01:46:36.264Z,3.78
2023-03-08T01:49:14.890Z,3.75
2023-03-08T01:52:17.812Z,3.72
2023-03-08T01:54:48.403Z,4.18
2023-03-08T01:57:23.769Z,4.32
2023-03-08T01:59:51.771Z,3.60
2023-03-08T02:02:29.923Z,3.67
2023-03-08T02:04:57.046Z,4.28
2023-03-08T02:07:24.288Z,4.50
2023-03-08T02:09:51.358Z,3.83
2023-03-08T02:12:19.553Z,4.25
2023-03-08T02:14:46.581Z,3.53
2023-03-08T02:17:14.149Z,4.22
2023-03-08T02:19:49.867Z,5.03
2023-03-08T02:22:17.721Z,5.28
2023-03-08T02:24:44.692Z,4.68
2023-03-08T02:27:19.903Z,4.60
2023-03-08T02:29:47.178Z,4.53
2023-03-08T02:32:15.827Z,4.88
2023-03-08T02:34:43.231Z,4.97
2023-03-08T02:37:10.653Z,5.45
2023-03-08T02:39:37.752Z,4.68
2023-03-08T02:42:05.180Z,5.20
2023-03-08T02:44:32.102Z,4.35
2023-03-08T02:46:59.375Z,5.13
2023-03-08T02:49:26.318Z,4.45
2023-03-08T02:51:53.850Z,5.57
2023-03-08T02:54:20.956Z,5.07
2023-03-08T02:56:48.530Z,4.93
2023-03-08T02:59:15.543Z,4.47
2023-03-08T03:01:42.937Z,4.00
2023-03-08T03:04:10.056Z,4.68
2023-03-08T03:06:37.396Z,5.40
2023-03-08T03:09:10.577Z,4.80
2023-03-08T03:11:39.640Z,4.93
2023-03-08T03:14:07.193Z,5.88
2023-03-08T03:16:34.441Z,6.05
2023-03-08T03:19:01.388Z,5.45
2023-03-08T03:21:28.960Z,7.13
2023-03-08T03:23:56.221Z,5.45
2023-03-08T03:26:24.761Z,4.70
2023-03-08T03:28:52.543Z,4.55
2023-03-08T03:31:22.600Z,5.10
2023-03-08T03:33:50.165Z,4.93
2023-03-08T03:36:20.277Z,4.20
2023-03-08T03:38:47.746Z,4.03
2023-03-08T03:41:18.298Z,4.65
2023-03-08T03:43:45.996Z,5.18
2023-03-08T03:46:16.455Z,4.47
2023-03-08T03:48:43.923Z,3.95
2023-03-08T03:51:14.363Z,4.13
2023-03-08T03:53:41.998Z,5.05
2023-03-08T03:56:21.310Z,4.22
2023-03-08T03:58:48.697Z,4.78
2023-03-08T04:01:20.976Z,4.72
2023-03-08T04:03:49.218Z,5.25
2023-03-08T04:06:28.373Z,5.05
2023-03-08T04:09:00.773Z,5.85
2023-03-08T04:11:31.645Z,4.05
2023-03-08T04:13:58.673Z,5.47
2023-03-08T04:16:29.628Z,4.93
2023-03-08T04:18:59.258Z,5.20
2023-03-08T04:21:27.269Z,5.40
2023-03-08T04:23:54.647Z,4.80
2023-03-08T04:26:22.424Z,4.65
2023-03-08T04:28:49.463Z,4.82
2023-03-08T04:31:26.645Z,5.03
2023-03-08T04:33:54.671Z,4.38
2023-03-08T04:36:23.111Z,5.03
2023-03-08T04:38:51.197Z,4.65
2023-03-08T04:41:19.450Z,4.03
2023-03-08T04:43:51.998Z,3.83
2023-03-08T04:46:22.434Z,5.00
2023-03-08T04:48:52.814Z,3.80
2023-03-08T04:51:20.738Z,4.15
2023-03-08T04:53:47.813Z,4.40
2023-03-08T04:56:16.264Z,3.92
2023-03-08T04:58:43.795Z,3.97
2023-03-08T05:01:22.268Z,4.70
2023-03-08T05:03:49.874Z,3.40
2023-03-08T05:06:18.565Z,4.55
2023-03-08T05:08:45.954Z,4.50
2023-03-08T05:11:25.639Z,4.18
2023-03-08T05:13:57.548Z,3.75
2023-03-08T05:16:25.993Z,3.53
2023-03-08T05:18:53.321Z,3.60
2023-03-08T05:21:22.571Z,3.63
2023-03-08T05:23:49.880Z,4.15
2023-03-08T05:26:18.467Z,4.10
2023-03-08T05:28:45.524Z,4.28
2023-03-08T05:31:17.809Z,4.32
2023-03-08T05:33:46.653Z,4.17
2023-03-08T05:36:15.335Z,4.75
2023-03-08T05:38:43.067Z,3.90
2023-03-08T05:41:14.150Z,4.65
2023-03-08T05:43:41.690Z,4.80
2023-03-08T05:46:17.985Z,5.13
2023-03-08T05:48:45.612Z,4.55
2023-03-08T05:51:15.683Z,5.05
2023-03-08T05:53:43.290Z,4.97
2023-03-08T05:56:21.831Z,5.22
2023-03-08T05:58:49.391Z,4.85
2023-03-08T06:01:18.419Z,5.20
2023-03-08T06:03:46.802Z,6.25
2023-03-08T06:06:14.311Z,6.95
2023-03-08T06:08:42.066Z,6.47
2023-03-08T06:11:10.190Z,6.70
2023-03-08T06:13:37.632Z,7.03
2023-03-08T06:16:05.383Z,6.25
2023-03-08T06:18:32.692Z,8.65
2023-03-08T06:21:01.375Z,8.98
2023-03-08T06:23:30.127Z,7.93
2023-03-08T06:25:58.736Z,6.07
2023-03-08T06:28:27.384Z,6.80
2023-03-08T06:30:55.491Z,6.22
2023-03-08T06:33:25.450Z,4.65
2023-03-08T06:36:05.334Z,4.38
2023-03-08T06:38:34.957Z,4.30
2023-03-08T06:41:03.200Z,4.75
2023-03-08T06:43:30.494Z,4.40
2023-03-08T06:45:57.842Z,3.92
2023-03-08T06:48:24.926Z,3.33
2023-03-08T06:50:52.284Z,3.72
2023-03-08T06:53:19.823Z,3.13
2023-03-08T06:55:47.412Z,2.85
2023-03-08T06:58:14.533Z,3.28
2023-03-08T07:00:42.073Z,3.08
2023-03-08T07:03:10.276Z,4.05
2023-03-08T07:05:38.790Z,9.85
2023-03-08T07:08:06.448Z,9.80
2023-03-08T07:10:34.707Z,17.92
2023-03-08T07:13:01.797Z,17.48
2023-03-08T07:15:29.241Z,16.88
2023-03-08T07:17:58.279Z,5.55
2023-03-08T07:20:27.645Z,4.45
2023-03-08T07:22:54.697Z,4.72
2023-03-08T07:25:22.289Z,3.60
2023-03-08T07:27:49.489Z,3.28
2023-03-08T07:30:17.311Z,4.60
2023-03-08T07:32:44.630Z,5.00
2023-03-08T07:35:14.710Z,5.80
2023-03-08T07:37:45.116Z,4.55
2023-03-08T07:40:14.331Z,3.75
2023-03-08T07:42:41.464Z,4.63
2023-03-08T07:45:10.259Z,3.67
2023-03-08T07:47:37.303Z,3.70
2023-03-08T07:50:05.140Z,2.97
2023-03-08T07:52:32.225Z,3.78
2023-03-08T07:55:02.252Z,3.08
2023-03-08T07:57:29.269Z,3.55
2023-03-08T07:59:56.975Z,3.33
2023-03-08T08:02:24.114Z,3.63
2023-03-08T08:04:51.879Z,3.10
2023-03-08T08:07:19.135Z,3.90
2023-03-08T08:09:46.677Z,4.40
2023-03-08T08:12:14.143Z,3.30
2023-03-08T08:14:42.024Z,3.05
2023-03-08T08:17:09.272Z,3.13
2023-03-08T08:19:38.136Z,3.67
2023-03-08T08:22:06.102Z,3.05
2023-03-08T08:24:34.104Z,4.07
2023-03-08T08:27:01.234Z,2.85
2023-03-08T08:29:28.737Z,3.20
2023-03-08T08:31:56.976Z,2.78
2023-03-08T08:34:24.713Z,4.30
2023-03-08T08:36:51.878Z,3.53
2023-03-08T08:39:19.707Z,3.80
2023-03-08T08:41:49.695Z,3.45
2023-03-08T08:44:17.206Z,3.70
2023-03-08T08:46:44.304Z,3.58
2023-03-08T08:49:12.291Z,3.72
2023-03-08T08:51:39.538Z,3.80
2023-03-08T08:54:07.230Z,3.78
2023-03-08T08:56:34.659Z,3.75
2023-03-08T08:59:02.963Z,2.30
2023-03-08T09:01:32.979Z,3.33
2023-03-08T09:04:00.877Z,3.10
2023-03-08T09:06:29.300Z,6.53
2023-03-08T09:08:58.768Z,3.00
2023-03-08T09:11:27.521Z,3.10
2023-03-08T09:13:55.270Z,2.53
2023-03-08T09:16:27.038Z,2.33
2023-03-08T09:18:56.833Z,2.63
2023-03-08T09:21:25.590Z,2.33
2023-03-08T09:23:53.104Z,2.15
2023-03-08T09:26:20.351Z,2.42
2023-03-08T09:28:47.798Z,2.03
2023-03-08T09:31:16.962Z,2.88
2023-03-08T09:33:49.882Z,2.13
2023-03-08T09:36:17.164Z,1.93
2023-03-08T09:38:46.699Z,2.35
2023-03-08T09:41:13.804Z,2.22
2023-03-08T09:44:04.275Z,2.33
2023-03-08T09:46:38.401Z,2.25
2023-03-08T09:49:13.636Z,1.85
2023-03-08T09:51:45.452Z,3.25
2023-03-08T09:54:18.235Z,3.33
2023-03-08T09:56:56.533Z,4.15
2023-03-08T09:59:47.682Z,5.38
2023-03-08T10:02:26.261Z,3.88
2023-03-08T10:05:13.291Z,2.50
2023-03-08T10:08:07.378Z,2.22
2023-03-08T10:13:30.635Z,2.63
2023-03-08T10:16:10.792Z,2.40
2023-03-08T10:19:03.646Z,4.22
2023-03-08T10:21:36.820Z,2.97
2023-03-08T10:24:15.695Z,2.50
2023-03-08T10:26:45.570Z,2.53
2023-03-08T10:29:14.101Z,2.92
2023-03-08T10:31:44.124Z,2.67
2023-03-08T10:34:15.567Z,3.00
2023-03-08T10:37:00.135Z,3.22
2023-03-08T10:39:27.641Z,2.55
2023-03-08T10:42:00.564Z,3.47
2023-03-08T10:44:33.961Z,3.20
2023-03-08T10:47:04.682Z,2.53
2023-03-08T10:49:32.094Z,2.65
2023-03-08T10:52:01.353Z,3.42
2023-03-08T10:54:29.484Z,2.10
2023-03-08T10:57:02.181Z,3.42
2023-03-08T10:59:33.038Z,2.40
2023-03-08T11:02:18.699Z,2.63
2023-03-08T11:04:59.679Z,3.10
2023-03-08T11:07:30.794Z,4.88
2023-03-08T11:10:13.439Z,2.65
2023-03-08T11:12:41.811Z,2.47
2023-03-08T11:15:20.435Z,3.08
2023-03-08T11:18:17.823Z,2.88
2023-03-08T11:21:00.642Z,1.33
2023-03-08T11:24:05.433Z,3.38
2023-03-08T11:26:55.734Z,2.53
2023-03-08T11:29:35.878Z,2.88
2023-03-08T11:32:53.466Z,3.90
2023-03-08T11:35:29.694Z,1.75
2023-03-08T11:38:17.826Z,2.13
2023-03-08T11:41:09.208Z,1.35
2023-03-08T11:44:15.082Z,2.00
2023-03-08T11:46:54.437Z,2.20
2023-03-08T11:49:55.088Z,1.88
2023-03-08T11:52:41.858Z,1.90
2023-03-08T11:55:46.894Z,1.83
2023-03-08T11:58:23.118Z,1.58
2023-03-08T12:00:53.537Z,1.52
2023-03-08T12:03:26.613Z,1.35
2023-03-08T12:06:22.686Z,1.42
2023-03-08T12:09:08.155Z,1.98
2023-03-08T12:11:46.295Z,1.92
2023-03-08T12:14:19.370Z,2.85
2023-03-08T12:16:56.446Z,1.55
2023-03-08T12:19:51.644Z,5.32
2023-03-08T12:22:39.297Z,3.35
2023-03-08T12:25:22.044Z,4.45
2023-03-08T12:28:02.651Z,3.03
2023-03-08T12:30:38.974Z,3.10
2023-03-08T12:33:10.006Z,2.60
2023-03-08T12:35:49.986Z,2.30
2023-03-08T12:38:20.282Z,2.78
2023-03-08T12:40:55.306Z,5.65
2023-03-08T12:43:22.261Z,4.10
2023-03-08T12:46:10.292Z,5.55
2023-03-08T12:48:49.254Z,3.47
2023-03-08T12:51:21.957Z,3.60
2023-03-08T12:53:49.149Z,2.75
2023-03-08T12:56:29.929Z,1.80
2023-03-08T12:59:03.778Z,1.80
2023-03-08T13:01:56.978Z,1.83
2023-03-08T13:04:39.280Z,2.63
2023-03-08T13:07:29.355Z,2.67
2023-03-08T13:09:56.429Z,3.70
2023-03-08T13:12:50.326Z,3.10
2023-03-08T13:15:23.034Z,1.90
2023-03-08T13:18:00.915Z,2.88
2023-03-08T13:20:41.758Z,2.60
2023-03-08T13:23:16.177Z,2.33
2023-03-08T13:26:07.008Z,2.75
2023-03-08T13:28:48.116Z,4.25
2023-03-08T13:31:18.421Z,4.28
2023-03-08T13:33:52.764Z,3.78
2023-03-08T13:36:29.910Z,5.50
2023-03-08T13:39:01.677Z,4.15
2023-03-08T13:41:41.781Z,3.92
2023-03-08T13:44:18.100Z,3.25
2023-03-08T13:46:46.632Z,2.58
2023-03-08T13:49:23.629Z,2.08
2023-03-08T13:51:53.842Z,2.70
2023-03-08T13:54:50.457Z,3.63
2023-03-08T13:57:33.726Z,4.03
2023-03-08T14:00:16.954Z,5.35
2023-03-08T14:02:46.989Z,3.28
2023-03-08T14:05:23.934Z,2.60
2023-03-08T14:07:59.098Z,3.08
2023-03-08T14:10:32.621Z,2.42
2023-03-08T14:12:59.846Z,2.97
2023-03-08T14:15:27.356Z,2.65
2023-03-08T14:17:54.435Z,2.33
2023-03-08T14:20:24.052Z,2.30
2023-03-08T14:22:54.729Z,2.67
2023-03-08T14:25:24.110Z,1.77
2023-03-08T14:27:51.621Z,2.45
2023-03-08T14:30:22.817Z,2.28
2023-03-08T14:33:14.623Z,2.25
2023-03-08T14:35:52.012Z,2.55
2023-03-08T14:38:28.237Z,2.60
2023-03-08T14:40:56.514Z,2.80
2023-03-08T14:43:26.029Z,2.83
2023-03-08T14:46:00.992Z,2.35
2023-03-08T14:48:36.050Z,2.22
2023-03-08T14:51:31.172Z,2.00
2023-03-08T14:54:18.260Z,2.78
2023-03-08T14:56:46.882Z,2.60
2023-03-08T14:59:25.233Z,2.72
2023-03-08T15:01:54.870Z,2.95
2023-03-08T15:04:24.873Z,3.47
2023-03-08T15:06:54.609Z,3.35
2023-03-08T15:09:22.948Z,3.30
2023-03-08T15:11:52.770Z,3.33
2023-03-08T15:14:19.849Z,2.83
2023-03-08T15:16:47.457Z,3.95
2023-03-08T15:19:14.443Z,2.65
2023-03-08T15:21:42.256Z,4.40
2023-03-08T15:24:17.401Z,3.45
2023-03-08T15:26:45.840Z,5.10
2023-03-08T15:29:20.504Z,4.72
2023-03-08T15:31:48.016Z,3.88
2023-03-08T15:34:15.034Z,4.47
2023-03-08T15:36:42.406Z,4.68
2023-03-08T15:39:12.580Z,4.38
2023-03-08T15:41:40.494Z,5.20
2023-03-08T15:44:07.882Z,4.32
2023-03-08T15:46:35.576Z,5.35
2023-03-08T15:49:02.930Z,5.65
2023-03-08T15:51:33.301Z,4.35
2023-03-08T15:54:00.461Z,5.30
2023-03-08T15:56:28.382Z,4.88
2023-03-08T15:58:55.467Z,5.85
2023-03-08T16:01:25.552Z,3.92
2023-03-08T16:03:54.266Z,4.63
2023-03-08T16:06:22.609Z,4.20
2023-03-08T16:08:49.804Z,4.05
2023-03-08T16:11:22.314Z,4.25
2023-03-08T16:13:53.554Z,4.50
2023-03-08T16:16:27.617Z,4.68
2023-03-08T16:18:59.220Z,6.10
2023-03-08T16:21:27.109Z,5.70
2023-03-08T16:23:54.159Z,5.40
2023-03-08T16:26:21.937Z,5.00
2023-03-08T16:28:48.904Z,5.55
2023-03-08T16:31:19.800Z,5.72
2023-03-08T16:33:46.818Z,5.75
2023-03-08T16:36:14.507Z,5.78
2023-03-08T16:38:41.894Z,5.72
2023-03-08T16:41:13.289Z,6.75
2023-03-08T16:43:49.801Z,10.30
2023-03-08T16:46:22.268Z,9.80
2023-03-08T16:48:51.263Z,7.63
2023-03-08T16:51:20.304Z,7.30
2023-03-08T16:53:48.085Z,6.50
2023-03-08T16:56:26.656Z,9.73
2023-03-08T16:58:55.848Z,9.15
2023-03-08T17:01:23.902Z,11.10
2023-03-08T17:03:52.150Z,13.85
2023-03-08T17:06:22.731Z,11.68
2023-03-08T17:08:49.949Z,10.48
2023-03-08T17:11:19.369Z,10.00
2023-03-08T17:13:51.266Z,10.48
2023-03-08T17:16:31.859Z,13.10
2023-03-08T17:19:00.569Z,10.57
2023-03-08T17:21:29.416Z,12.60
2023-03-08T17:23:57.436Z,9.88
2023-03-08T17:26:25.072Z,9.23
2023-03-08T17:28:53.826Z,12.48
2023-03-08T17:31:23.286Z,12.85
2023-03-08T17:33:51.220Z,19.42
2023-03-08T17:36:19.464Z,18.20
2023-03-08T17:38:46.824Z,13.43
2023-03-08T17:41:16.044Z,12.10
2023-03-08T17:43:43.011Z,21.58
2023-03-08T17:46:28.770Z,24.35
2023-03-08T17:48:56.336Z,19.13
2023-03-08T17:51:27.347Z,16.08
2023-03-08T17:53:54.747Z,15.77
2023-03-08T17:56:26.468Z,14.93
2023-03-08T17:58:56.054Z,16.10
2023-03-08T18:01:25.851Z,13.45
2023-03-08T18:03:55.450Z,14.63
2023-03-08T18:06:28.245Z,11.77
2023-03-08T18:08:56.625Z,13.13
2023-03-08T18:11:25.088Z,10.27
2023-03-08T18:13:52.923Z,15.00
2023-03-08T18:16:21.917Z,13.52
2023-03-08T18:18:50.191Z,14.50
2023-03-08T18:21:18.903Z,21.15
2023-03-08T18:23:47.008Z,21.60
2023-03-08T18:26:18.644Z,24.20
2023-03-08T18:28:46.156Z,20.33
2023-03-08T18:31:21.010Z,14.48
2023-03-08T18:33:47.995Z,18.60
2023-03-08T18:36:16.265Z,17.42
2023-03-08T18:38:43.653Z,14.13
2023-03-08T18:41:16.502Z,12.50
2023-03-08T18:43:43.787Z,12.98
2023-03-08T18:46:13.020Z,11.90
2023-03-08T18:48:41.000Z,14.30
2023-03-08T18:51:08.290Z,13.75
2023-03-08T18:53:35.387Z,12.00
2023-03-08T18:56:04.704Z,12.65
2023-03-08T18:58:32.363Z,15.27
2023-03-08T19:01:02.917Z,17.45
2023-03-08T19:03:30.655Z,27.35
2023-03-08T19:06:02.580Z,39.42
2023-03-08T19:08:29.755Z,23.55
2023-03-08T19:10:58.075Z,15.95
2023-03-08T19:13:25.560Z,15.23
2023-03-08T19:15:53.006Z,10.57
2023-03-08T19:18:19.921Z,9.70
2023-03-08T19:20:47.300Z,10.65
2023-03-08T19:23:14.457Z,10.10
2023-03-08T19:26:00.711Z,9.52
2023-03-08T19:28:27.926Z,11.48
2023-03-08T19:30:55.878Z,13.77
2023-03-08T19:33:30.977Z,14.77
2023-03-08T19:35:59.001Z,16.17
2023-03-08T19:38:26.025Z,15.32
2023-03-08T19:40:53.347Z,14.93
2023-03-08T19:43:20.375Z,15.93
2023-03-08T19:45:51.027Z,14.80
2023-03-08T19:48:18.057Z,15.77
2023-03-08T19:50:46.377Z,18.05
2023-03-08T19:53:13.527Z,17.30
2023-03-08T19:55:51.821Z,18.67
2023-03-08T19:58:19.987Z,17.38
2023-03-08T20:00:47.325Z,18.85
2023-03-08T20:03:16.228Z,19.73
2023-03-08T20:05:45.731Z,17.45
2023-03-08T20:08:13.591Z,17.33
2023-03-08T20:10:41.422Z,18.65
2023-03-08T20:13:08.366Z,16.70
2023-03-08T20:15:36.024Z,17.00
2023-03-08T20:18:03.108Z,16.65
2023-03-08T20:20:30.390Z,14.88
2023-03-08T20:22:57.402Z,16.25
2023-03-08T20:25:24.927Z,15.38
2023-03-08T20:27:51.933Z,13.70
2023-03-08T20:30:19.574Z,14.18
2023-03-08T20:32:46.540Z,14.05
2023-03-08T20:35:15.007Z,15.85
2023-03-08T20:37:42.447Z,13.63
2023-03-08T20:40:12.170Z,13.48
2023-03-08T20:42:39.576Z,13.88
2023-03-08T20:45:07.719Z,13.82
2023-03-08T20:47:34.852Z,12.82
2023-03-08T20:50:02.109Z,13.50
2023-03-08T20:52:29.158Z,12.95
2023-03-08T20:54:56.699Z,11.98
2023-03-08T20:57:23.744Z,12.00
2023-03-08T20:59:51.341Z,13.13
2023-03-08T21:02:18.490Z,13.45
2023-03-08T21:04:46.072Z,13.30
2023-03-08T21:07:13.011Z,12.25
2023-03-08T21:09:40.621Z,10.85
2023-03-08T21:12:07.998Z,10.77
2023-03-08T21:14:35.602Z,12.18
2023-03-08T21:17:02.543Z,12.57
2023-03-08T21:19:29.853Z,13.20
2023-03-08T21:21:56.811Z,13.43
2023-03-08T21:24:24.404Z,13.52
2023-03-08T21:26:52.263Z,12.45
2023-03-08T21:29:21.495Z,13.13
2023-03-08T21:31:52.923Z,13.50
2023-03-08T21:34:21.232Z,13.40
2023-03-08T21:36:48.438Z,14.45
2023-03-08T21:39:16.343Z,13.43
2023-03-08T21:41:46.106Z,14.52
2023-03-08T21:44:17.016Z,13.23
2023-03-08T21:46:44.630Z,12.90
2023-03-08T21:49:24.209Z,13.68
2023-03-08T21:51:52.899Z,14.98
2023-03-08T21:54:20.877Z,14.50
2023-03-08T21:56:48.346Z,14.57
2023-03-08T21:59:19.498Z,14.85
2023-03-08T22:01:48.470Z,14.32
2023-03-08T22:04:16.690Z,15.85
2023-03-08T22:06:43.951Z,13.75
2023-03-08T22:09:11.666Z,13.63
2023-03-08T22:11:38.759Z,13.75
2023-03-08T22:14:06.836Z,15.43
2023-03-08T22:16:37.842Z,14.80
2023-03-08T22:19:05.675Z,15.82
2023-03-08T22:21:32.695Z,15.35
2023-03-08T22:24:02.184Z,12.63
2023-03-08T22:26:30.279Z,13.55
2023-03-08T22:28:58.450Z,13.45
2023-03-08T22:31:27.239Z,13.52
2023-03-08T22:33:54.706Z,14.15
2023-03-08T22:36:22.278Z,14.07
2023-03-08T22:38:49.536Z,15.02
2023-03-08T22:41:21.992Z,13.88
2023-03-08T22:43:50.431Z,14.25
2023-03-08T22:46:23.434Z,14.65
2023-03-08T22:48:52.765Z,13.57
2023-03-08T22:51:21.474Z,13.23
2023-03-08T22:53:49.605Z,13.02
2023-03-08T22:56:23.847Z,13.02
2023-03-08T22:58:51.421Z,12.27
2023-03-08T23:01:21.347Z,12.93
2023-03-08T23:03:49.844Z,11.82
2023-03-08T23:06:18.377Z,11.75
2023-03-08T23:08:47.037Z,13.00
2023-03-08T23:11:14.416Z,13.40
2023-03-08T23:13:41.906Z,13.07
2023-03-08T23:16:12.583Z,12.32
2023-03-08T23:18:40.705Z,12.57
2023-03-08T23:21:10.844Z,13.77
2023-03-08T23:23:38.434Z,14.90
2023-03-08T23:26:07.860Z,14.23
2023-03-08T23:28:36.447Z,14.32
2023-03-08T23:31:14.793Z,15.00
2023-03-08T23:33:43.065Z,13.70
2023-03-08T23:36:11.862Z,12.95
2023-03-08T23:38:39.600Z,14.20
2023-03-08T23:41:08.626Z,15.55
2023-03-08T23:43:37.414Z,14.43
2023-03-08T23:46:10.640Z,14.70
2023-03-08T23:48:38.181Z,13.60
2023-03-08T23:51:10.493Z,14.27
2023-03-08T23:53:37.786Z,15.25
2023-03-08T23:56:05.680Z,14.38
2023-03-08T23:58:33.678Z,13.80
